CPX674 Details

Departure: Lynden Pindling International Airport (MYNN)
Arrival: Grand Bahama International Airport (MYGF)
Route: PEACH BR65V ZFP


Current Weather Information
MYNN 232300Z 07014KT 050V110 9999 SCT025 26/19 A3007
MYGF 232300Z 06020KT 9999 SCT030 26/17 A3009